createdAt,value
2023-03-17T00:00:53.792Z,40.79
2023-03-17T00:03:26.615Z,40.79
2023-03-17T00:05:59.790Z,40.85
2023-03-17T00:08:32.662Z,40.87
2023-03-17T00:11:05.750Z,40.90
2023-03-17T00:13:38.628Z,40.99
2023-03-17T00:16:11.769Z,41.03
2023-03-17T00:18:44.648Z,41.01
2023-03-17T00:21:17.491Z,41.10
2023-03-17T00:23:50.841Z,41.20
2023-03-17T00:26:23.837Z,41.20
2023-03-17T00:28:57.009Z,41.24
2023-03-17T00:31:30.889Z,41.27
2023-03-17T00:34:03.869Z,41.40
2023-03-17T00:36:36.814Z,41.37
2023-03-17T00:39:09.785Z,41.43
2023-03-17T00:41:42.696Z,41.39
2023-03-17T00:44:15.861Z,41.45
2023-03-17T00:46:49.062Z,41.42
2023-03-17T00:49:21.994Z,41.46
2023-03-17T00:51:54.855Z,41.43
2023-03-17T00:54:27.861Z,41.50
2023-03-17T00:57:00.869Z,41.48
2023-03-17T00:59:37.868Z,41.49
2023-03-17T01:02:10.676Z,41.53
2023-03-17T01:04:47.560Z,41.57
2023-03-17T01:07:16.874Z,41.58
2023-03-17T01:09:49.899Z,41.58
2023-03-17T01:12:23.071Z,41.61
2023-03-17T01:14:57.128Z,41.57
2023-03-17T01:17:30.896Z,41.58
2023-03-17T01:20:04.000Z,41.60
2023-03-17T01:22:36.639Z,41.58
2023-03-17T01:25:09.642Z,41.57
2023-03-17T01:27:42.873Z,41.61
2023-03-17T01:30:15.589Z,41.68
2023-03-17T01:32:49.011Z,41.66
2023-03-17T01:35:22.119Z,41.64
2023-03-17T01:37:55.870Z,41.66
2023-03-17T01:40:29.138Z,41.68
2023-03-17T01:43:01.906Z,41.65
2023-03-17T01:45:34.945Z,41.63
2023-03-17T01:48:07.725Z,41.64
2023-03-17T01:50:40.790Z,41.64
2023-03-17T01:53:13.639Z,41.61
2023-03-17T01:55:46.815Z,41.65
2023-03-17T01:58:19.640Z,41.61
2023-03-17T02:00:52.695Z,41.62
2023-03-17T02:03:25.764Z,41.61
2023-03-17T02:05:58.996Z,41.58
2023-03-17T02:08:31.778Z,41.65
2023-03-17T02:11:04.725Z,41.57
2023-03-17T02:13:37.886Z,41.59
2023-03-17T02:16:10.668Z,41.61
2023-03-17T02:18:44.186Z,41.64
2023-03-17T02:21:17.964Z,41.58
2023-03-17T02:23:56.561Z,41.66
2023-03-17T02:26:29.918Z,41.63
2023-03-17T02:29:03.203Z,41.66
2023-03-17T02:31:37.049Z,41.68
2023-03-17T02:34:10.059Z,41.68
2023-03-17T02:36:43.193Z,41.72
2023-03-17T02:39:17.013Z,41.74
2023-03-17T02:41:49.860Z,41.76
2023-03-17T02:44:22.823Z,41.75
2023-03-17T02:46:55.956Z,41.73
2023-03-17T02:49:29.277Z,41.78
2023-03-17T02:52:03.181Z,41.76
2023-03-17T02:54:36.879Z,41.77
2023-03-17T02:57:09.938Z,41.74
2023-03-17T02:59:42.791Z,41.76
2023-03-17T03:02:15.785Z,41.72
2023-03-17T03:04:48.858Z,41.76
2023-03-17T03:07:21.775Z,41.75
2023-03-17T03:09:55.093Z,41.75
2023-03-17T03:12:28.122Z,41.76
2023-03-17T03:15:01.154Z,41.75
2023-03-17T03:17:33.768Z,41.72
2023-03-17T03:20:06.878Z,41.69
2023-03-17T03:22:39.789Z,41.69
2023-03-17T03:25:12.937Z,41.66
2023-03-17T03:27:46.002Z,41.68
2023-03-17T03:30:25.052Z,41.69
2023-03-17T03:32:57.972Z,41.65
2023-03-17T03:35:31.249Z,41.67
2023-03-17T03:38:04.102Z,41.67
2023-03-17T03:40:37.091Z,41.68
2023-03-17T03:43:21.927Z,41.63
2023-03-17T03:45:43.192Z,41.62
2023-03-17T03:48:16.133Z,41.63
2023-03-17T03:50:49.120Z,41.62
2023-03-17T03:53:21.826Z,41.60
2023-03-17T03:55:55.172Z,41.63
2023-03-17T03:58:28.289Z,41.64
2023-03-17T04:01:02.061Z,41.63
2023-03-17T04:03:35.200Z,41.66
2023-03-17T04:06:07.997Z,41.65
2023-03-17T04:08:40.851Z,41.63
2023-03-17T04:11:14.214Z,41.66
2023-03-17T04:13:47.020Z,41.67
2023-03-17T04:16:33.965Z,41.68
2023-03-17T04:19:07.203Z,41.68
2023-03-17T04:21:39.868Z,41.69
2023-03-17T04:24:12.977Z,41.69
2023-03-17T04:26:46.199Z,41.67
2023-03-17T04:29:18.895Z,41.67
2023-03-17T04:31:52.118Z,41.69
2023-03-17T04:34:25.038Z,41.67
2023-03-17T04:36:58.239Z,41.69
2023-03-17T04:39:30.984Z,41.70
2023-03-17T04:42:04.194Z,41.69
2023-03-17T04:44:37.238Z,41.70
2023-03-17T04:47:10.365Z,41.70
2023-03-17T04:49:44.238Z,41.72
2023-03-17T04:52:17.275Z,41.70
2023-03-17T04:54:50.307Z,41.72
2023-03-17T04:57:22.967Z,41.70
2023-03-17T04:59:56.101Z,41.75
2023-03-17T05:02:29.209Z,41.71
2023-03-17T05:05:02.072Z,41.71
2023-03-17T05:07:35.358Z,41.74
2023-03-17T05:10:09.015Z,41.73
2023-03-17T05:12:42.101Z,41.74
2023-03-17T05:15:15.278Z,41.72
2023-03-17T05:17:48.062Z,41.71
2023-03-17T05:20:27.373Z,41.69
2023-03-17T05:23:00.286Z,41.66
2023-03-17T05:25:33.311Z,41.68
2023-03-17T05:28:06.137Z,41.68
2023-03-17T05:30:39.321Z,41.68
2023-03-17T05:33:12.032Z,41.66
2023-03-17T05:35:45.093Z,41.68
2023-03-17T05:38:18.353Z,41.86
2023-03-17T05:40:51.317Z,41.41
2023-03-17T05:43:23.958Z,41.75
2023-03-17T05:45:57.129Z,41.04
2023-03-17T05:48:30.071Z,40.78
2023-03-17T05:51:03.191Z,40.48
2023-03-17T05:53:36.190Z,40.31
2023-03-17T05:56:09.320Z,40.21
2023-03-17T05:58:42.042Z,40.34
2023-03-17T06:01:15.407Z,40.28
2023-03-17T06:03:48.408Z,40.45
2023-03-17T06:06:21.048Z,40.44
2023-03-17T06:08:54.403Z,40.49
2023-03-17T06:11:27.118Z,40.54
2023-03-17T06:14:00.397Z,40.57
2023-03-17T06:16:33.430Z,40.53
2023-03-17T06:19:06.101Z,40.58
2023-03-17T06:21:39.305Z,40.58
2023-03-17T06:24:12.068Z,40.58
2023-03-17T06:26:45.143Z,40.57
2023-03-17T06:29:18.056Z,40.53
2023-03-17T06:31:51.110Z,40.59
2023-03-17T06:34:24.353Z,40.57
2023-03-17T06:37:11.322Z,40.58
2023-03-17T06:39:44.207Z,40.60
2023-03-17T06:42:17.480Z,40.59
2023-03-17T06:44:50.168Z,40.57
2023-03-17T06:47:27.339Z,40.55
2023-03-17T06:50:00.059Z,40.55
2023-03-17T06:52:33.417Z,40.57
2023-03-17T06:55:06.308Z,40.54
2023-03-17T06:57:39.426Z,40.55
2023-03-17T07:00:12.481Z,40.52
2023-03-17T07:02:45.215Z,40.48
2023-03-17T07:05:18.088Z,40.46
2023-03-17T07:07:51.130Z,40.51
2023-03-17T07:10:24.159Z,40.48
2023-03-17T07:12:57.241Z,40.50
2023-03-17T07:15:30.444Z,40.46
2023-03-17T07:18:03.211Z,40.46
2023-03-17T07:20:36.555Z,40.42
2023-03-17T07:23:10.484Z,40.44
2023-03-17T07:25:43.308Z,40.46
2023-03-17T07:28:16.249Z,40.42
2023-03-17T07:30:49.658Z,40.42
2023-03-17T07:33:23.649Z,40.40
2023-03-17T07:35:57.538Z,40.41
2023-03-17T07:38:30.451Z,40.37
2023-03-17T07:41:03.375Z,40.39
2023-03-17T07:43:36.489Z,40.40
2023-03-17T07:46:09.487Z,40.38
2023-03-17T07:48:42.341Z,40.36
2023-03-17T07:51:15.539Z,40.37
2023-03-17T07:53:48.288Z,40.32
2023-03-17T07:56:21.244Z,40.32
2023-03-17T07:58:54.415Z,40.32
2023-03-17T08:01:27.430Z,40.33
2023-03-17T08:04:00.775Z,40.31
2023-03-17T08:06:34.471Z,40.31
2023-03-17T08:09:07.475Z,40.29
2023-03-17T08:11:40.487Z,40.31
2023-03-17T08:14:20.229Z,40.29
2023-03-17T08:16:53.644Z,40.29
2023-03-17T08:19:26.575Z,40.28
2023-03-17T08:21:59.491Z,40.29
2023-03-17T08:24:32.244Z,40.27
2023-03-17T08:27:05.620Z,40.26
2023-03-17T08:29:38.228Z,40.26
2023-03-17T08:32:11.752Z,40.27
2023-03-17T08:34:45.539Z,40.26
2023-03-17T08:37:18.589Z,40.26
2023-03-17T08:39:51.351Z,40.26
2023-03-17T08:42:24.575Z,40.26
2023-03-17T08:44:57.274Z,40.25
2023-03-17T08:47:30.242Z,40.24
2023-03-17T08:50:03.374Z,40.24
2023-03-17T08:52:36.248Z,40.23
2023-03-17T08:55:09.385Z,40.25
2023-03-17T08:57:42.392Z,40.25
2023-03-17T09:00:15.588Z,40.21
2023-03-17T09:02:48.515Z,40.24
2023-03-17T09:05:24.475Z,40.19
2023-03-17T09:07:57.491Z,40.22
2023-03-17T09:10:30.914Z,40.19
2023-03-17T09:13:03.815Z,40.19
2023-03-17T09:15:37.584Z,40.15
2023-03-17T09:18:10.436Z,40.17
2023-03-17T09:20:43.474Z,40.16
2023-03-17T09:23:16.411Z,40.16
2023-03-17T09:25:49.597Z,40.14
2023-03-17T09:28:22.693Z,40.18
2023-03-17T09:30:55.517Z,40.17
2023-03-17T09:33:28.456Z,40.19
2023-03-17T09:36:01.512Z,40.18
2023-03-17T09:38:34.350Z,40.03
2023-03-17T09:41:07.787Z,40.18
2023-03-17T09:43:41.533Z,40.17
2023-03-17T09:46:14.483Z,40.16
2023-03-17T09:48:47.412Z,40.16
2023-03-17T09:51:20.651Z,40.17
2023-03-17T09:53:53.338Z,40.16
2023-03-17T09:56:26.691Z,40.16
2023-03-17T09:58:59.614Z,40.17
2023-03-17T10:01:32.795Z,40.16
2023-03-17T10:04:05.612Z,40.18
2023-03-17T10:06:38.432Z,40.15
2023-03-17T10:09:11.685Z,40.15
2023-03-17T10:11:44.650Z,40.18
2023-03-17T10:14:17.715Z,40.15
2023-03-17T10:16:50.401Z,40.15
2023-03-17T10:19:23.519Z,40.16
2023-03-17T10:21:56.520Z,40.13
2023-03-17T10:24:43.436Z,40.16
2023-03-17T10:27:16.759Z,40.12
2023-03-17T10:29:49.552Z,40.13
2023-03-17T10:32:22.628Z,40.17
2023-03-17T10:34:55.510Z,40.17
2023-03-17T10:37:28.739Z,40.18
2023-03-17T10:40:01.553Z,40.17
2023-03-17T10:42:34.508Z,40.18
2023-03-17T10:45:07.644Z,40.18
2023-03-17T10:47:40.428Z,40.18
2023-03-17T10:50:13.905Z,40.17
2023-03-17T10:52:47.553Z,40.17
2023-03-17T10:55:20.709Z,40.19
2023-03-17T10:57:53.958Z,40.19
2023-03-17T11:00:27.557Z,40.15
2023-03-17T11:03:00.555Z,40.18
2023-03-17T11:05:33.773Z,40.19
2023-03-17T11:08:06.691Z,40.16
2023-03-17T11:10:39.460Z,40.14
2023-03-17T11:13:12.862Z,40.16
2023-03-17T11:15:45.778Z,40.18
2023-03-17T11:18:18.778Z,40.19
2023-03-17T11:20:51.766Z,40.20
2023-03-17T11:23:24.567Z,40.18
2023-03-17T11:25:57.837Z,40.20
2023-03-17T11:28:30.849Z,40.19
2023-03-17T11:31:03.783Z,40.20
2023-03-17T11:33:36.678Z,40.18
2023-03-17T11:36:09.737Z,40.16
2023-03-17T11:38:42.845Z,40.20
2023-03-17T11:41:15.613Z,40.17
2023-03-17T11:43:48.625Z,40.13
2023-03-17T11:46:22.142Z,40.14
2023-03-17T11:48:55.877Z,40.13
2023-03-17T11:51:28.635Z,40.18
2023-03-17T11:54:01.695Z,40.14
2023-03-17T11:56:38.722Z,40.15
2023-03-17T11:59:11.700Z,40.12
2023-03-17T12:01:44.838Z,40.12
2023-03-17T12:04:18.023Z,40.13
2023-03-17T12:06:51.568Z,40.16
2023-03-17T12:09:24.835Z,40.17
2023-03-17T12:11:58.865Z,40.27
2023-03-17T12:14:31.851Z,40.46
2023-03-17T12:17:04.933Z,40.66
2023-03-17T12:19:38.020Z,40.91
2023-03-17T12:22:11.995Z,40.91
2023-03-17T12:24:44.854Z,41.07
2023-03-17T12:27:17.890Z,41.06
2023-03-17T12:29:50.874Z,41.11
2023-03-17T12:32:23.876Z,41.10
2023-03-17T12:34:57.445Z,41.17
2023-03-17T12:37:29.969Z,41.27
2023-03-17T12:40:02.918Z,41.25
2023-03-17T12:42:35.903Z,41.23
2023-03-17T12:45:08.907Z,41.30
2023-03-17T12:47:41.892Z,41.26
2023-03-17T12:50:14.864Z,41.26
2023-03-17T12:52:47.897Z,41.25
2023-03-17T12:55:20.674Z,41.30
2023-03-17T12:57:53.707Z,41.31
2023-03-17T13:00:26.687Z,41.31
2023-03-17T13:02:59.769Z,41.32
2023-03-17T13:05:33.443Z,41.39
2023-03-17T13:08:05.814Z,41.39
2023-03-17T13:10:38.983Z,41.45
2023-03-17T13:13:11.902Z,41.44
2023-03-17T13:15:44.686Z,41.49
2023-03-17T13:18:17.826Z,41.47
2023-03-17T13:20:50.782Z,41.52
2023-03-17T13:23:23.704Z,41.52
2023-03-17T13:25:56.724Z,41.51
2023-03-17T13:28:29.783Z,41.53
2023-03-17T13:31:03.111Z,41.53
2023-03-17T13:33:35.982Z,41.49
2023-03-17T13:36:09.173Z,41.50
2023-03-17T13:38:43.149Z,41.47
2023-03-17T13:41:16.970Z,41.47
2023-03-17T13:43:49.955Z,41.50
2023-03-17T13:46:22.755Z,41.53
2023-03-17T13:48:56.178Z,41.55
2023-03-17T13:51:30.016Z,41.54
2023-03-17T13:54:02.715Z,41.58
2023-03-17T13:56:35.861Z,41.60
2023-03-17T13:59:09.079Z,41.56
2023-03-17T14:01:41.751Z,41.59
2023-03-17T14:04:14.891Z,41.58
2023-03-17T14:06:47.730Z,41.63
2023-03-17T14:09:20.729Z,41.61
2023-03-17T14:11:54.060Z,41.51
2023-03-17T14:14:33.047Z,41.46
2023-03-17T14:17:05.916Z,41.43
2023-03-17T14:19:38.746Z,41.42
2023-03-17T14:22:12.092Z,41.24
2023-03-17T14:24:44.867Z,41.27
2023-03-17T14:27:17.779Z,41.35
2023-03-17T14:29:52.971Z,41.37
2023-03-17T14:32:25.911Z,41.39
2023-03-17T14:34:59.078Z,41.42
2023-03-17T14:37:31.880Z,41.47
2023-03-17T14:40:04.963Z,41.47
2023-03-17T14:42:37.906Z,41.47
2023-03-17T14:45:10.927Z,41.48
2023-03-17T14:47:43.889Z,41.52
2023-03-17T14:50:16.793Z,41.56
2023-03-17T14:52:49.844Z,41.55
2023-03-17T14:55:22.827Z,41.51
2023-03-17T14:57:55.820Z,41.57
2023-03-17T15:00:29.087Z,41.56
2023-03-17T15:03:02.102Z,41.57
2023-03-17T15:05:34.934Z,41.55
2023-03-17T15:08:08.346Z,41.63
2023-03-17T15:10:42.216Z,41.64
2023-03-17T15:13:15.212Z,41.63
2023-03-17T15:15:48.044Z,41.65
2023-03-17T15:18:24.055Z,41.62
2023-03-17T15:20:56.861Z,41.68
2023-03-17T15:23:30.042Z,41.65
2023-03-17T15:26:02.997Z,41.68
2023-03-17T15:28:36.180Z,41.72
2023-03-17T15:31:09.308Z,41.73
2023-03-17T15:33:42.160Z,41.73
2023-03-17T15:36:25.602Z,41.69
2023-03-17T15:38:48.168Z,41.73
2023-03-17T15:41:20.852Z,41.71
2023-03-17T15:43:53.934Z,41.75
2023-03-17T15:46:27.224Z,41.77
2023-03-17T15:48:59.881Z,41.75
2023-03-17T15:51:33.408Z,41.77
2023-03-17T15:54:07.031Z,41.77
2023-03-17T15:56:39.909Z,41.80
2023-03-17T15:59:13.278Z,41.79
2023-03-17T16:01:46.382Z,41.83
2023-03-17T16:04:18.939Z,41.84
2023-03-17T16:06:51.905Z,41.81
2023-03-17T16:09:25.003Z,41.80
2023-03-17T16:11:58.231Z,41.80
2023-03-17T16:14:31.279Z,41.82
2023-03-17T16:17:04.336Z,41.86
2023-03-17T16:19:37.209Z,41.85
2023-03-17T16:22:10.033Z,41.90
2023-03-17T16:24:43.307Z,41.89
2023-03-17T16:27:30.214Z,41.90
2023-03-17T16:30:03.362Z,41.88
2023-03-17T16:32:36.100Z,41.88
2023-03-17T16:35:09.256Z,41.92
2023-03-17T16:37:42.064Z,41.86
2023-03-17T16:40:15.311Z,41.83
2023-03-17T16:42:48.265Z,41.85
2023-03-17T16:45:21.474Z,41.88
2023-03-17T16:47:55.221Z,41.91
2023-03-17T16:50:28.272Z,41.86
2023-03-17T16:53:01.261Z,41.91
2023-03-17T16:55:34.326Z,41.88
2023-03-17T16:58:07.022Z,41.88
2023-03-17T17:00:40.057Z,41.88
2023-03-17T17:03:13.103Z,41.91
2023-03-17T17:05:46.078Z,41.86
2023-03-17T17:08:19.257Z,41.88
2023-03-17T17:10:52.461Z,41.84
2023-03-17T17:13:26.215Z,41.92
2023-03-17T17:15:59.338Z,41.87
2023-03-17T17:18:32.406Z,41.91
2023-03-17T17:21:05.304Z,41.88
2023-03-17T17:23:38.475Z,41.87
2023-03-17T17:26:12.405Z,41.90
2023-03-17T17:28:45.303Z,41.92
2023-03-17T17:31:18.095Z,41.97
2023-03-17T17:33:51.285Z,41.87
2023-03-17T17:36:24.130Z,41.90
2023-03-17T17:38:57.046Z,41.93
2023-03-17T17:41:32.539Z,41.94
2023-03-17T17:44:03.302Z,41.89
2023-03-17T17:46:36.407Z,41.88
2023-03-17T17:49:09.432Z,41.94
2023-03-17T17:51:42.423Z,41.86
2023-03-17T17:54:15.340Z,41.86
2023-03-17T17:56:48.361Z,41.92
2023-03-17T17:59:21.094Z,41.95
2023-03-17T18:01:54.089Z,41.90
2023-03-17T18:04:27.483Z,41.94
2023-03-17T18:07:00.129Z,41.94
2023-03-17T18:09:33.251Z,41.93
2023-03-17T18:12:06.452Z,41.97
2023-03-17T18:14:39.068Z,41.89
2023-03-17T18:17:12.533Z,41.90
2023-03-17T18:19:45.078Z,41.99
2023-03-17T18:22:18.092Z,42.00
2023-03-17T18:24:51.228Z,42.05
2023-03-17T18:27:24.116Z,42.11
2023-03-17T18:29:57.161Z,42.11
2023-03-17T18:32:30.427Z,42.16
2023-03-17T18:35:03.146Z,42.16
2023-03-17T18:37:36.121Z,42.13
2023-03-17T18:40:14.627Z,42.13
2023-03-17T18:42:42.302Z,42.16
2023-03-17T18:45:15.227Z,42.18
2023-03-17T18:47:48.331Z,42.14
2023-03-17T18:50:35.317Z,42.20
2023-03-17T18:53:08.226Z,42.20
2023-03-17T18:55:41.454Z,42.19
2023-03-17T18:58:14.444Z,42.21
2023-03-17T19:00:47.504Z,42.24
2023-03-17T19:03:20.189Z,42.21
2023-03-17T19:05:53.161Z,42.22
2023-03-17T19:08:26.283Z,42.29
2023-03-17T19:10:59.407Z,42.21
2023-03-17T19:13:32.675Z,42.31
2023-03-17T19:16:06.455Z,42.24
2023-03-17T19:18:41.825Z,42.31
2023-03-17T19:21:12.614Z,42.25
2023-03-17T19:23:46.455Z,42.32
2023-03-17T19:26:19.439Z,42.30
2023-03-17T19:28:52.531Z,42.34
2023-03-17T19:31:25.557Z,42.41
2023-03-17T19:33:58.312Z,42.42
2023-03-17T19:36:31.169Z,42.64
2023-03-17T19:39:04.195Z,42.71
2023-03-17T19:41:37.309Z,42.85
2023-03-17T19:44:10.799Z,43.26
2023-03-17T19:46:44.425Z,42.97
2023-03-17T19:49:17.250Z,42.83
2023-03-17T19:51:50.462Z,42.72
2023-03-17T19:54:23.510Z,42.65
2023-03-17T19:56:56.368Z,42.61
2023-03-17T19:59:29.676Z,42.56
2023-03-17T20:02:03.500Z,42.40
2023-03-17T20:04:36.435Z,42.52
2023-03-17T20:07:09.286Z,42.58
2023-03-17T20:09:42.263Z,42.64
2023-03-17T20:12:15.276Z,42.68
2023-03-17T20:14:48.284Z,42.63
2023-03-17T20:17:21.522Z,42.67
2023-03-17T20:19:54.636Z,42.61
2023-03-17T20:22:27.570Z,42.61
2023-03-17T20:25:00.581Z,42.73
2023-03-17T20:27:33.570Z,42.71
2023-03-17T20:30:06.564Z,42.65
2023-03-17T20:32:39.369Z,42.70
2023-03-17T20:35:12.597Z,42.65
2023-03-17T20:37:45.570Z,42.62
2023-03-17T20:40:18.562Z,42.64
2023-03-17T20:42:51.381Z,42.65
2023-03-17T20:45:24.595Z,42.59
2023-03-17T20:47:57.341Z,42.60
2023-03-17T20:50:31.022Z,42.61
2023-03-17T20:53:03.848Z,42.50
2023-03-17T20:55:37.760Z,42.51
2023-03-17T20:58:11.644Z,42.46
2023-03-17T21:00:44.788Z,42.46
2023-03-17T21:03:18.704Z,42.47
2023-03-17T21:05:51.649Z,42.42
2023-03-17T21:08:24.643Z,42.52
2023-03-17T21:10:57.693Z,42.42
2023-03-17T21:13:30.656Z,42.49
2023-03-17T21:16:03.663Z,42.49
2023-03-17T21:18:36.724Z,42.50
2023-03-17T21:21:09.656Z,42.43
2023-03-17T21:23:42.492Z,42.42
2023-03-17T21:26:15.547Z,42.41
2023-03-17T21:28:48.737Z,42.43
2023-03-17T21:31:21.737Z,42.41
2023-03-17T21:33:54.694Z,42.48
2023-03-17T21:36:27.813Z,42.46
2023-03-17T21:39:00.431Z,42.41
2023-03-17T21:41:33.712Z,42.41
2023-03-17T21:44:06.410Z,42.33
2023-03-17T21:46:39.777Z,42.37
2023-03-17T21:49:12.380Z,42.30
2023-03-17T21:51:45.596Z,42.30
2023-03-17T21:54:18.858Z,42.33
2023-03-17T21:56:52.731Z,41.84
2023-03-17T21:59:25.561Z,41.13
2023-03-17T22:01:58.585Z,41.89
2023-03-17T22:04:31.762Z,41.99
2023-03-17T22:07:04.770Z,41.94
2023-03-17T22:09:37.776Z,42.06
2023-03-17T22:12:10.693Z,42.06
2023-03-17T22:14:43.748Z,42.13
2023-03-17T22:17:16.718Z,42.16
2023-03-17T22:19:49.826Z,42.12
2023-03-17T22:22:22.807Z,42.14
2023-03-17T22:24:55.858Z,42.16
2023-03-17T22:27:28.803Z,42.21
2023-03-17T22:30:01.780Z,42.19
2023-03-17T22:32:34.637Z,42.21
2023-03-17T22:35:08.040Z,42.20
2023-03-17T22:37:41.886Z,42.17
2023-03-17T22:40:14.802Z,42.20
2023-03-17T22:43:01.551Z,42.18
2023-03-17T22:45:34.885Z,42.15
2023-03-17T22:48:07.568Z,42.22
2023-03-17T22:50:40.948Z,42.17
2023-03-17T22:53:14.792Z,42.17
2023-03-17T22:55:48.004Z,42.24
2023-03-17T22:58:21.805Z,42.26
2023-03-17T23:00:54.906Z,42.26
2023-03-17T23:03:27.604Z,42.26
2023-03-17T23:06:00.609Z,42.23
2023-03-17T23:08:33.805Z,42.26
2023-03-17T23:11:07.035Z,42.25
2023-03-17T23:13:40.798Z,42.28
2023-03-17T23:16:13.798Z,42.28
2023-03-17T23:18:47.182Z,42.39
2023-03-17T23:21:19.864Z,42.39
2023-03-17T23:23:52.572Z,42.46
2023-03-17T23:26:25.924Z,42.50
2023-03-17T23:28:58.727Z,42.50
2023-03-17T23:31:31.723Z,42.54
2023-03-17T23:34:04.871Z,42.59
2023-03-17T23:36:37.892Z,42.53
2023-03-17T23:39:10.766Z,42.59
2023-03-17T23:41:43.672Z,42.62
2023-03-17T23:44:16.561Z,42.52
2023-03-17T23:46:49.921Z,42.59
2023-03-17T23:49:22.616Z,42.60
2023-03-17T23:51:55.672Z,42.59
2023-03-17T23:54:28.979Z,42.61
2023-03-17T23:57:01.710Z,42.58
2023-03-17T23:59:34.671Z,42.62
